createdAt,value
2019-01-19T00:10:18.272Z,1.87
2019-01-19T00:21:28.801Z,2.10
2019-01-19T00:31:43.554Z,2.20
2019-01-19T00:42:20.590Z,2.13
2019-01-19T00:52:48.443Z,1.80
2019-01-19T01:03:33.743Z,2.00
2019-01-19T01:14:04.713Z,1.60
2019-01-19T01:24:47.194Z,2.23
2019-01-19T01:35:36.243Z,1.87
2019-01-19T01:45:59.827Z,1.50
2019-01-19T01:56:15.757Z,1.97
2019-01-19T04:03:58.960Z,1.70
2019-01-19T04:14:51.867Z,1.50
2019-01-19T04:25:22.976Z,1.50
2019-01-19T04:35:28.109Z,1.60
2019-01-19T04:45:33.249Z,1.60
2019-01-19T04:55:38.412Z,1.70
2019-01-19T05:05:43.543Z,1.87
2019-01-19T05:15:48.675Z,1.60
2019-01-19T05:25:53.842Z,1.60
2019-01-19T05:35:58.989Z,1.60
2019-01-19T05:46:04.203Z,1.57
2019-01-19T05:56:09.513Z,1.90
2019-01-19T06:06:14.867Z,1.60
2019-01-19T06:16:20.006Z,1.60
2019-01-19T06:26:25.169Z,1.40
2019-01-19T06:36:30.306Z,1.60
2019-01-19T06:46:35.442Z,1.80
2019-01-19T06:56:40.599Z,1.83
2019-01-19T07:06:45.736Z,1.63
2019-01-19T07:16:50.868Z,1.70
2019-01-19T07:26:56.028Z,1.53
2019-01-19T07:37:02.068Z,1.50
2019-01-19T07:47:07.629Z,1.70
2019-01-19T07:57:12.774Z,1.70
2019-01-19T08:07:17.939Z,1.80
2019-01-19T08:17:23.168Z,1.87
2019-01-19T08:27:28.337Z,1.60
2019-01-19T08:37:33.551Z,1.60
2019-01-19T08:47:39.036Z,1.97
2019-01-19T08:57:45.260Z,1.50
2019-01-19T09:07:51.553Z,1.67
2019-01-19T09:17:56.806Z,1.50
2019-01-19T09:28:03.593Z,1.87
2019-01-19T09:38:08.810Z,2.00
2019-01-19T09:48:13.985Z,4.83
2019-01-19T09:58:19.145Z,4.30
2019-01-19T10:08:24.296Z,4.10
2019-01-19T10:18:29.547Z,3.77
2019-01-19T10:28:34.730Z,3.90
2019-01-19T10:38:40.954Z,3.93
2019-01-19T10:48:46.113Z,3.70
2019-01-19T10:58:51.248Z,3.37
2019-01-19T11:08:56.386Z,3.30
2019-01-19T11:19:01.527Z,3.30
2019-01-19T11:29:06.697Z,3.20
2019-01-19T11:39:11.848Z,3.27
2019-01-19T11:49:16.995Z,3.17
2019-01-19T11:59:22.144Z,3.40
2019-01-19T12:09:27.272Z,3.40
2019-01-19T12:19:32.410Z,3.23
2019-01-19T12:29:37.572Z,3.20
2019-01-19T12:39:42.710Z,3.00
2019-01-19T12:49:47.846Z,3.50
2019-01-19T12:59:52.985Z,3.47
2019-01-19T13:10:03.429Z,3.20
2019-01-19T13:20:31.777Z,2.93
2019-01-19T13:30:55.499Z,3.07
2019-01-19T13:41:27.333Z,3.07
2019-01-19T13:52:07.722Z,2.70
2019-01-19T14:02:53.060Z,2.70
2019-01-19T14:13:28.360Z,3.00
2019-01-19T14:23:59.914Z,2.77
2019-01-19T14:34:29.998Z,2.80
2019-01-19T14:45:02.214Z,3.40
2019-01-19T14:55:38.567Z,3.00
2019-01-19T15:06:43.189Z,2.70
2019-01-19T15:17:40.729Z,2.70
2019-01-19T15:28:16.827Z,3.00
2019-01-19T15:38:58.040Z,2.70
2019-01-19T15:49:43.321Z,3.07
2019-01-19T16:00:19.005Z,2.70
2019-01-19T16:11:28.026Z,2.90
2019-01-19T16:22:39.912Z,2.73
2019-01-19T16:33:23.811Z,2.67
2019-01-19T16:43:41.405Z,3.53
2019-01-19T16:54:03.792Z,3.50
2019-01-19T17:04:41.896Z,3.30
2019-01-19T17:15:21.640Z,4.00
2019-01-19T17:26:05.795Z,4.67
2019-01-19T17:36:30.391Z,4.40
2019-01-19T17:47:12.401Z,4.30
2019-01-19T17:57:39.139Z,4.90
2019-01-19T18:08:14.631Z,4.63
2019-01-19T18:18:42.037Z,4.67
2019-01-19T18:29:41.134Z,4.53
2019-01-19T18:40:27.193Z,4.67
2019-01-19T18:51:03.622Z,4.67
2019-01-19T19:01:31.572Z,5.27
2019-01-19T19:12:18.887Z,5.77
2019-01-19T19:22:33.003Z,5.17
2019-01-19T19:33:19.338Z,5.27
2019-01-19T19:43:49.813Z,4.60
2019-01-19T19:53:56.700Z,6.33
2019-01-19T20:04:02.005Z,6.77
2019-01-19T20:14:07.323Z,5.70
2019-01-19T20:24:12.657Z,5.93
2019-01-19T20:34:17.853Z,5.97
2019-01-19T20:44:23.105Z,5.73
2019-01-19T20:54:28.625Z,5.57
2019-01-19T21:04:33.835Z,5.83
2019-01-19T21:14:41.975Z,4.90
2019-01-19T21:24:47.204Z,5.57
2019-01-19T21:34:52.371Z,6.30
2019-01-19T21:44:57.505Z,5.70
2019-01-19T21:55:02.703Z,4.77
2019-01-19T22:05:08.241Z,4.90
2019-01-19T22:15:16.161Z,5.13
2019-01-19T22:25:21.394Z,6.40
2019-01-19T22:35:28.972Z,6.20
2019-01-19T22:45:34.107Z,5.07
2019-01-19T22:55:39.363Z,7.30
2019-01-19T23:05:44.488Z,5.97
2019-01-19T23:15:49.704Z,6.07
2019-01-19T23:25:54.878Z,6.20
2019-01-19T23:36:00.102Z,6.77
2019-01-19T23:46:05.570Z,6.23
2019-01-19T23:56:10.852Z,6.47
